createdAt,value
2018-11-27T00:01:19.367Z,94.07
2018-11-27T00:03:53.894Z,94.04
2018-11-27T00:06:24.233Z,93.79
2018-11-27T00:08:53.677Z,93.72
2018-11-27T00:11:23.145Z,93.79
2018-11-27T00:13:52.650Z,93.58
2018-11-27T00:16:22.071Z,93.88
2018-11-27T00:18:51.510Z,93.60
2018-11-27T00:21:21.021Z,93.82
2018-11-27T00:23:50.413Z,93.58
2018-11-27T00:26:19.812Z,93.67
2018-11-27T00:28:49.303Z,93.13
2018-11-27T00:31:18.723Z,93.38
2018-11-27T00:33:48.169Z,93.49
2018-11-27T00:36:17.655Z,93.61
2018-11-27T00:38:47.138Z,93.69
2018-11-27T00:41:16.562Z,93.27
2018-11-27T00:43:46.053Z,93.68
2018-11-27T00:46:15.457Z,93.68
2018-11-27T00:48:44.901Z,93.84
2018-11-27T00:51:14.386Z,93.40
2018-11-27T00:53:43.793Z,93.85
2018-11-27T00:56:13.177Z,93.65
2018-11-27T00:58:42.656Z,94.10
2018-11-27T01:01:12.095Z,93.57
2018-11-27T01:03:41.561Z,93.30
2018-11-27T01:06:11.074Z,94.07
2018-11-27T01:08:40.500Z,93.94
2018-11-27T01:11:09.894Z,93.89
2018-11-27T01:13:39.366Z,93.93
2018-11-27T01:16:08.867Z,93.57
2018-11-27T01:18:38.261Z,94.16
2018-11-27T01:21:07.789Z,93.62
2018-11-27T01:23:37.201Z,93.48
2018-11-27T01:26:06.813Z,93.63
2018-11-27T01:28:36.337Z,93.09
2018-11-27T01:31:06.301Z,93.64
2018-11-27T01:33:35.797Z,93.19
2018-11-27T01:36:05.258Z,93.92
2018-11-27T01:38:34.699Z,93.42
2018-11-27T01:41:04.189Z,93.38
2018-11-27T01:43:33.674Z,93.31
2018-11-27T01:46:03.377Z,94.00
2018-11-27T01:48:32.819Z,93.55
2018-11-27T01:51:02.360Z,93.42
2018-11-27T01:53:31.799Z,93.39
2018-11-27T01:56:01.247Z,93.53
2018-11-27T01:58:30.726Z,93.09
2018-11-27T02:01:00.165Z,93.49
2018-11-27T02:03:29.594Z,92.95
2018-11-27T02:05:59.047Z,92.99
2018-11-27T02:08:28.505Z,92.28
2018-11-27T02:10:58.013Z,92.37
2018-11-27T02:13:27.423Z,93.02
2018-11-27T02:15:56.851Z,92.88
2018-11-27T02:18:26.273Z,92.99
2018-11-27T02:20:55.803Z,92.27
2018-11-27T02:23:25.311Z,92.35
2018-11-27T02:25:54.737Z,92.16
2018-11-27T02:28:24.233Z,92.24
2018-11-27T02:30:53.668Z,92.35
2018-11-27T02:33:23.105Z,92.72
2018-11-27T02:35:52.618Z,91.43
2018-11-27T02:38:22.083Z,91.99
2018-11-27T02:40:51.521Z,92.29
2018-11-27T02:43:21.057Z,91.84
2018-11-27T02:45:50.474Z,91.98
2018-11-27T02:48:19.881Z,91.82
2018-11-27T02:50:49.411Z,91.84
2018-11-27T02:53:18.845Z,91.38
2018-11-27T02:55:48.280Z,90.60
2018-11-27T02:58:17.770Z,91.19
2018-11-27T03:00:47.222Z,90.62
2018-11-27T03:03:16.650Z,90.61
2018-11-27T03:05:46.185Z,90.55
2018-11-27T03:08:15.655Z,90.15
2018-11-27T03:10:45.129Z,89.81
2018-11-27T03:13:14.570Z,89.66
2018-11-27T03:15:43.973Z,89.63
2018-11-27T03:18:13.404Z,90.18
2018-11-27T03:20:42.861Z,89.90
2018-11-27T03:23:12.299Z,89.98
2018-11-27T03:25:41.746Z,89.91
2018-11-27T03:28:11.236Z,89.92
2018-11-27T03:30:40.706Z,89.80
2018-11-27T03:33:10.147Z,88.86
2018-11-27T03:35:39.669Z,88.93
2018-11-27T03:38:12.281Z,89.77
2018-11-27T03:40:41.754Z,90.12
2018-11-27T03:43:11.199Z,90.29
2018-11-27T03:45:40.703Z,89.83
2018-11-27T03:48:10.873Z,90.46
2018-11-27T03:50:40.270Z,90.44
2018-11-27T03:53:09.689Z,90.75
2018-11-27T03:55:39.828Z,90.33
2018-11-27T03:58:09.609Z,90.16
2018-11-27T04:00:39.098Z,90.50
2018-11-27T04:03:12.363Z,90.64
2018-11-27T04:05:42.841Z,90.82
2018-11-27T04:08:12.279Z,90.53
2018-11-27T04:10:42.521Z,90.31
2018-11-27T04:13:11.937Z,90.45
2018-11-27T04:15:41.347Z,90.09
2018-11-27T04:18:10.902Z,89.96
2018-11-27T04:20:40.328Z,90.30
2018-11-27T04:23:09.777Z,90.00
2018-11-27T04:25:39.239Z,90.11
2018-11-27T04:28:09.790Z,90.24
2018-11-27T04:30:39.270Z,90.47
2018-11-27T04:33:08.663Z,89.35
2018-11-27T04:35:38.037Z,89.57
2018-11-27T04:38:08.855Z,89.27
2018-11-27T04:40:38.270Z,89.95
2018-11-27T04:43:07.702Z,89.21
2018-11-27T04:45:37.217Z,89.73
2018-11-27T04:48:08.437Z,88.57
2018-11-27T04:50:38.022Z,89.04
2018-11-27T04:53:07.798Z,88.87
2018-11-27T04:55:37.218Z,88.96
2018-11-27T04:58:06.929Z,89.44
2018-11-27T05:00:36.350Z,89.25
2018-11-27T05:03:06.569Z,88.47
2018-11-27T05:05:36.061Z,88.67
2018-11-27T05:08:06.045Z,88.68
2018-11-27T05:10:35.460Z,88.61
2018-11-27T05:13:05.322Z,87.87
2018-11-27T05:15:34.749Z,87.99
2018-11-27T05:18:04.237Z,87.84
2018-11-27T05:20:33.744Z,88.32
2018-11-27T05:23:03.195Z,88.41
2018-11-27T05:25:32.633Z,87.75
2018-11-27T05:28:02.126Z,88.75
2018-11-27T05:30:31.602Z,88.10
2018-11-27T05:33:01.078Z,87.82
2018-11-27T05:35:31.795Z,88.12
2018-11-27T05:38:02.934Z,87.57
2018-11-27T05:40:32.476Z,87.31
2018-11-27T05:43:09.585Z,86.82
2018-11-27T05:45:39.839Z,87.95
2018-11-27T05:48:09.897Z,87.19
2018-11-27T05:50:39.402Z,86.89
2018-11-27T05:53:08.874Z,87.44
2018-11-27T05:55:38.319Z,88.04
2018-11-27T05:58:08.154Z,87.07
2018-11-27T06:00:57.854Z,87.78
2018-11-27T06:03:31.086Z,88.82
2018-11-27T06:06:03.272Z,87.88
2018-11-27T06:11:25.094Z,88.47
2018-11-27T06:14:09.348Z,87.82
2018-11-27T06:16:42.510Z,88.29
2018-11-27T06:19:11.969Z,88.83
2018-11-27T06:21:41.602Z,88.86
2018-11-27T06:24:11.082Z,88.48
2018-11-27T06:26:40.501Z,88.20
2018-11-27T06:29:09.905Z,88.89
2018-11-27T06:31:39.344Z,88.36
2018-11-27T06:34:08.745Z,89.33
2018-11-27T06:36:38.146Z,89.15
2018-11-27T06:39:09.750Z,88.85
2018-11-27T06:41:39.181Z,88.82
2018-11-27T06:44:08.604Z,89.40
2018-11-27T06:46:38.064Z,88.74
2018-11-27T06:49:07.710Z,88.49
2018-11-27T06:51:37.127Z,88.84
2018-11-27T06:54:07.835Z,89.21
2018-11-27T06:56:37.373Z,89.25
2018-11-27T06:59:07.132Z,88.63
2018-11-27T07:01:36.629Z,89.45
2018-11-27T07:04:06.080Z,88.74
2018-11-27T07:06:35.539Z,88.83
2018-11-27T07:09:07.656Z,89.50
2018-11-27T07:11:37.296Z,88.15
2018-11-27T07:14:07.742Z,87.73
2018-11-27T07:16:37.167Z,89.06
2018-11-27T07:19:06.688Z,88.51
2018-11-27T07:21:36.103Z,88.42
2018-11-27T07:24:05.593Z,88.32
2018-11-27T07:26:35.000Z,89.35
2018-11-27T07:29:04.414Z,89.17
2018-11-27T07:31:33.836Z,89.36
2018-11-27T07:34:03.234Z,88.72
2018-11-27T07:36:32.594Z,88.61
2018-11-27T07:39:02.007Z,88.62
2018-11-27T07:41:31.385Z,89.09
2018-11-27T07:44:00.775Z,88.98
2018-11-27T07:46:30.177Z,88.60
2018-11-27T07:48:59.529Z,88.91
2018-11-27T07:51:28.934Z,88.36
2018-11-27T07:53:58.365Z,89.15
2018-11-27T07:56:27.885Z,89.16
2018-11-27T07:58:57.340Z,88.47
2018-11-27T08:01:26.825Z,88.86
2018-11-27T08:03:56.275Z,88.02
2018-11-27T08:06:25.771Z,87.57
2018-11-27T08:08:55.562Z,87.91
2018-11-27T08:11:24.950Z,87.84
2018-11-27T08:13:54.366Z,88.70
2018-11-27T08:16:23.846Z,88.13
2018-11-27T08:18:53.249Z,88.62
2018-11-27T08:21:22.675Z,88.00
2018-11-27T08:23:52.175Z,87.68
2018-11-27T08:26:21.550Z,87.88
2018-11-27T08:28:51.012Z,87.61
2018-11-27T08:31:20.410Z,87.39
2018-11-27T08:33:49.757Z,87.75
2018-11-27T08:36:19.142Z,87.08
2018-11-27T08:38:48.507Z,87.54
2018-11-27T08:41:17.856Z,86.47
2018-11-27T08:43:47.346Z,86.79
2018-11-27T08:46:16.746Z,87.01
2018-11-27T08:48:46.118Z,86.65
2018-11-27T08:51:15.506Z,86.43
2018-11-27T08:53:45.032Z,86.12
2018-11-27T08:56:14.427Z,85.95
2018-11-27T08:58:44.027Z,86.50
2018-11-27T09:01:13.602Z,85.43
2018-11-27T09:03:46.451Z,86.03
2018-11-27T09:06:12.637Z,85.14
2018-11-27T09:08:42.129Z,84.98
2018-11-27T09:11:11.574Z,85.17
2018-11-27T09:13:42.209Z,84.12
2018-11-27T09:16:10.405Z,83.70
2018-11-27T09:18:39.794Z,84.93
2018-11-27T09:21:09.193Z,84.98
2018-11-27T09:23:38.639Z,84.34
2018-11-27T09:26:08.075Z,84.28
2018-11-27T09:28:37.523Z,85.03
2018-11-27T09:31:08.838Z,84.81
2018-11-27T09:33:38.278Z,84.08
2018-11-27T09:36:07.675Z,83.43
2018-11-27T09:38:37.118Z,84.02
2018-11-27T09:41:06.791Z,84.05
2018-11-27T09:43:36.195Z,83.50
2018-11-27T09:46:05.986Z,83.96
2018-11-27T09:48:35.424Z,84.14
2018-11-27T09:51:05.148Z,82.19
2018-11-27T09:53:34.558Z,82.38
2018-11-27T09:56:03.936Z,82.91
2018-11-27T09:58:34.016Z,82.65
2018-11-27T10:01:03.428Z,82.65
2018-11-27T10:03:32.831Z,81.62
2018-11-27T10:06:02.280Z,81.77
2018-11-27T10:08:31.709Z,81.64
2018-11-27T10:11:01.138Z,82.04
2018-11-27T10:13:30.567Z,81.96
2018-11-27T10:15:59.973Z,79.37
2018-11-27T10:18:29.391Z,81.01
2018-11-27T10:20:58.828Z,79.39
2018-11-27T10:23:28.236Z,79.47
2018-11-27T10:25:57.675Z,81.21
2018-11-27T10:28:31.840Z,82.21
2018-11-27T10:30:56.539Z,80.69
2018-11-27T10:33:25.905Z,80.35
2018-11-27T10:35:55.392Z,80.86
2018-11-27T10:38:24.788Z,80.18
2018-11-27T10:40:54.341Z,80.69
2018-11-27T10:43:23.845Z,80.66
2018-11-27T10:45:53.277Z,80.12
2018-11-27T10:48:22.776Z,78.80
2018-11-27T10:50:52.262Z,79.93
2018-11-27T10:53:21.720Z,80.37
2018-11-27T10:55:51.129Z,79.62
2018-11-27T10:58:20.648Z,80.72
2018-11-27T11:00:55.319Z,78.72
2018-11-27T11:03:24.847Z,78.33
2018-11-27T11:05:56.433Z,78.50
2018-11-27T11:08:25.911Z,79.95
2018-11-27T11:10:55.307Z,79.17
2018-11-27T11:13:24.726Z,78.90
2018-11-27T11:15:54.169Z,78.15
2018-11-27T11:18:23.677Z,79.20
2018-11-27T11:20:53.161Z,78.61
2018-11-27T11:23:22.633Z,77.94
2018-11-27T11:25:52.301Z,78.64
2018-11-27T11:28:24.513Z,76.89
2018-11-27T11:30:53.922Z,76.82
2018-11-27T11:33:23.311Z,77.96
2018-11-27T11:35:52.777Z,77.55
2018-11-27T11:38:22.155Z,77.22
2018-11-27T11:40:51.602Z,78.11
2018-11-27T11:43:21.145Z,77.29
2018-11-27T11:45:50.500Z,77.78
2018-11-27T11:48:19.877Z,76.57
2018-11-27T11:50:49.326Z,77.25
2018-11-27T11:53:19.768Z,78.54
2018-11-27T11:55:49.746Z,76.72
2018-11-27T11:58:19.141Z,77.21
2018-11-27T12:00:51.578Z,77.27
2018-11-27T12:03:21.134Z,77.14
2018-11-27T12:05:50.829Z,77.11
2018-11-27T12:08:20.421Z,77.02
2018-11-27T12:10:50.128Z,76.54
2018-11-27T12:13:19.522Z,77.14
2018-11-27T12:15:49.565Z,77.61
2018-11-27T12:18:19.202Z,77.12
2018-11-27T12:20:48.733Z,77.58
2018-11-27T12:23:18.250Z,77.00
2018-11-27T12:25:47.792Z,76.00
2018-11-27T12:28:17.483Z,76.18
2018-11-27T12:30:47.178Z,76.94
2018-11-27T12:33:16.863Z,77.21
2018-11-27T12:35:46.873Z,76.76
2018-11-27T12:38:16.732Z,76.35
2018-11-27T12:40:46.255Z,76.91
2018-11-27T12:43:15.798Z,77.18
2018-11-27T12:45:45.310Z,78.05
2018-11-27T12:48:14.790Z,77.55
2018-11-27T12:50:46.615Z,77.28
2018-11-27T12:53:17.476Z,77.02
2018-11-27T12:55:49.767Z,77.80
2018-11-27T12:58:19.320Z,77.32
2018-11-27T13:00:48.772Z,77.92
2018-11-27T13:03:18.432Z,76.07
2018-11-27T13:05:48.313Z,76.32
2018-11-27T13:08:24.145Z,76.60
2018-11-27T13:10:53.582Z,77.04
2018-11-27T13:13:23.027Z,76.47
2018-11-27T13:15:52.619Z,75.64
2018-11-27T13:18:22.227Z,76.06
2018-11-27T13:20:51.950Z,77.28
2018-11-27T13:23:21.618Z,77.12
2018-11-27T13:25:51.309Z,77.70
2018-11-27T13:28:20.943Z,76.52
2018-11-27T13:31:02.580Z,77.68
2018-11-27T13:33:50.421Z,77.91
2018-11-27T13:36:19.943Z,77.20
2018-11-27T13:38:49.386Z,77.22
2018-11-27T13:41:18.922Z,78.12
2018-11-27T13:43:48.479Z,78.05
2018-11-27T13:46:18.045Z,77.98
2018-11-27T13:48:47.571Z,78.19
2018-11-27T13:51:17.394Z,77.60
2018-11-27T13:53:46.990Z,77.27
2018-11-27T13:56:16.442Z,78.01
2018-11-27T13:58:45.980Z,78.58
2018-11-27T14:01:15.505Z,79.00
2018-11-27T14:03:44.966Z,79.15
2018-11-27T14:06:14.491Z,79.67
2018-11-27T14:08:44.048Z,78.40
2018-11-27T14:11:18.974Z,79.12
2018-11-27T14:13:43.167Z,80.05
2018-11-27T14:16:12.740Z,80.34
2018-11-27T14:18:42.308Z,79.85
2018-11-27T14:21:11.935Z,79.69
2018-11-27T14:23:41.478Z,80.09
2018-11-27T14:26:10.953Z,79.99
2018-11-27T14:28:40.520Z,79.76
2018-11-27T14:31:10.054Z,80.13
2018-11-27T14:33:39.851Z,80.27
2018-11-27T14:36:09.350Z,80.24
2018-11-27T14:38:39.472Z,80.47
2018-11-27T14:41:08.961Z,79.97
2018-11-27T14:43:38.686Z,79.88
2018-11-27T14:46:09.335Z,80.73
2018-11-27T14:48:39.106Z,80.11
2018-11-27T14:51:08.914Z,80.27
2018-11-27T14:53:38.534Z,81.08
2018-11-27T14:56:08.163Z,81.25
2018-11-27T14:58:37.683Z,80.66
2018-11-27T15:01:07.993Z,81.47
2018-11-27T15:03:37.542Z,80.39
2018-11-27T15:06:07.074Z,80.92
2018-11-27T15:08:36.586Z,81.20
2018-11-27T15:11:06.401Z,81.64
2018-11-27T15:13:35.893Z,82.30
2018-11-27T15:16:05.568Z,82.36
2018-11-27T15:18:35.159Z,82.25
2018-11-27T15:21:04.785Z,82.17
2018-11-27T15:23:34.336Z,82.42
2018-11-27T15:26:04.017Z,82.30
2018-11-27T15:28:33.602Z,82.40
2018-11-27T15:31:03.217Z,81.79
2018-11-27T15:33:32.906Z,81.82
2018-11-27T15:36:02.480Z,81.36
2018-11-27T15:38:32.086Z,80.28
2018-11-27T15:41:02.924Z,77.62
2018-11-27T15:43:32.595Z,77.97
2018-11-27T15:46:02.496Z,76.59
2018-11-27T15:54:43.265Z,79.21
2018-11-27T15:57:13.905Z,78.90
2018-11-27T15:59:46.926Z,78.75
2018-11-27T16:02:37.208Z,77.23
2018-11-27T16:05:07.101Z,75.88
2018-11-27T16:07:36.642Z,75.77
2018-11-27T16:10:14.645Z,76.09
2018-11-27T16:12:44.326Z,76.11
2018-11-27T16:15:18.722Z,76.86
2018-11-27T16:17:56.034Z,76.55
2018-11-27T16:20:25.835Z,72.93
2018-11-27T16:22:55.491Z,72.35
2018-11-27T16:25:25.946Z,72.90
2018-11-27T16:27:55.900Z,70.44
2018-11-27T16:30:29.474Z,69.86
2018-11-27T16:32:59.008Z,71.11
2018-11-27T16:35:28.465Z,71.31
2018-11-27T16:38:00.615Z,71.86
2018-11-27T16:40:36.637Z,71.95
2018-11-27T16:43:06.346Z,73.42
2018-11-27T16:45:35.765Z,74.50
2018-11-27T16:48:05.389Z,73.91
2018-11-27T16:50:34.858Z,74.04
2018-11-27T16:53:04.382Z,71.92
2018-11-27T16:55:33.892Z,73.19
2018-11-27T16:58:03.327Z,72.03
2018-11-27T17:00:35.014Z,72.89
2018-11-27T17:03:06.418Z,71.28
2018-11-27T17:05:41.563Z,70.05
2018-11-27T17:08:13.075Z,71.07
2018-11-27T17:10:45.358Z,71.69
2018-11-27T17:13:16.115Z,72.32
2018-11-27T17:15:45.651Z,71.85
2018-11-27T17:18:15.107Z,71.29
2018-11-27T17:20:46.217Z,70.57
2018-11-27T17:23:18.372Z,71.32
2018-11-27T17:25:48.070Z,70.58
2018-11-27T17:28:24.152Z,69.53
2018-11-27T17:31:09.806Z,70.69
2018-11-27T17:33:50.115Z,69.90
2018-11-27T17:36:19.696Z,69.25
2018-11-27T17:38:49.265Z,70.50
2018-11-27T17:41:18.868Z,70.50
2018-11-27T17:43:48.370Z,70.81
2018-11-27T17:46:17.942Z,71.45
2018-11-27T17:48:47.451Z,71.76
2018-11-27T17:51:17.062Z,72.93
2018-11-27T17:53:46.530Z,72.93
2018-11-27T17:56:16.151Z,72.51
2018-11-27T17:58:45.789Z,71.66
2018-11-27T18:01:15.390Z,71.50
2018-11-27T18:03:45.175Z,72.36
2018-11-27T18:06:14.680Z,73.00
2018-11-27T18:08:44.159Z,72.87
2018-11-27T18:11:13.605Z,73.05
2018-11-27T18:13:43.082Z,72.14
2018-11-27T18:16:12.576Z,72.03
2018-11-27T18:18:41.975Z,72.39
2018-11-27T18:21:11.582Z,72.91
2018-11-27T18:23:41.359Z,71.22
2018-11-27T18:26:10.867Z,70.79
2018-11-27T18:28:40.503Z,70.06
2018-11-27T18:31:10.011Z,71.10
2018-11-27T18:33:39.507Z,70.94
2018-11-27T18:36:09.049Z,71.09
2018-11-27T18:38:38.737Z,70.48
2018-11-27T18:41:08.508Z,70.29
2018-11-27T18:43:38.015Z,70.01
2018-11-27T18:46:09.123Z,69.35
2018-11-27T18:48:38.952Z,69.62
2018-11-27T18:51:08.697Z,69.81
2018-11-27T18:53:38.670Z,70.19
2018-11-27T18:56:08.727Z,70.85
2018-11-27T18:58:38.300Z,70.46
2018-11-27T19:01:08.551Z,70.28
2018-11-27T19:03:38.224Z,70.17
2018-11-27T19:06:08.018Z,69.22
2018-11-27T19:08:37.658Z,67.99
2018-11-27T19:11:11.446Z,67.61
2018-11-27T19:13:48.185Z,68.39
2018-11-27T19:16:25.281Z,68.16
2018-11-27T19:21:46.532Z,67.91
2018-11-27T19:24:16.546Z,69.07
2018-11-27T19:26:46.461Z,70.55
2018-11-27T19:29:16.765Z,68.77
2018-11-27T19:31:47.530Z,69.16
2018-11-27T19:34:17.141Z,68.12
2018-11-27T19:36:47.398Z,68.64
2018-11-27T19:39:17.425Z,67.89
2018-11-27T19:41:47.278Z,67.94
2018-11-27T19:44:17.243Z,68.51
2018-11-27T19:46:47.102Z,69.08
2018-11-27T19:49:16.882Z,69.46
2018-11-27T19:51:46.603Z,68.57
2018-11-27T19:54:16.440Z,68.58
2018-11-27T19:56:46.018Z,68.63
2018-11-27T19:59:15.593Z,69.14
2018-11-27T20:01:45.129Z,68.44
2018-11-27T20:04:15.030Z,67.97
2018-11-27T20:06:44.702Z,67.92
2018-11-27T20:09:14.597Z,67.96
2018-11-27T20:11:44.528Z,69.17
2018-11-27T20:14:14.359Z,69.47
2018-11-27T20:16:44.235Z,69.23
2018-11-27T20:19:13.915Z,69.12
2018-11-27T20:21:43.509Z,70.15
2018-11-27T20:24:13.165Z,69.88
2018-11-27T20:26:42.679Z,70.63
2018-11-27T20:29:12.830Z,70.58
2018-11-27T20:31:42.297Z,69.83
2018-11-27T20:34:11.754Z,68.71
2018-11-27T20:36:43.336Z,70.18
2018-11-27T20:39:12.850Z,70.59
2018-11-27T20:41:42.334Z,71.58
2018-11-27T20:44:11.858Z,72.18
2018-11-27T20:49:26.533Z,71.87
2018-11-27T20:51:56.232Z,73.16
2018-11-27T20:54:26.004Z,72.48
2018-11-27T20:56:55.887Z,73.71
2018-11-27T20:59:25.524Z,73.43
2018-11-27T21:01:55.082Z,72.65
2018-11-27T21:04:24.770Z,73.60
2018-11-27T21:06:54.363Z,72.64
2018-11-27T21:09:23.987Z,73.09
2018-11-27T21:11:53.486Z,74.68
2018-11-27T21:14:22.962Z,73.63
2018-11-27T21:16:53.146Z,73.73
2018-11-27T21:19:22.559Z,74.03
2018-11-27T21:21:52.056Z,73.94
2018-11-27T21:24:21.853Z,74.13
2018-11-27T21:26:51.435Z,74.34
2018-11-27T21:29:22.257Z,74.59
2018-11-27T21:31:51.911Z,75.19
2018-11-27T21:34:21.396Z,75.30
2018-11-27T21:36:50.898Z,74.82
2018-11-27T21:39:20.565Z,75.38
2018-11-27T21:41:50.177Z,75.60
2018-11-27T21:44:19.902Z,75.61
2018-11-27T21:46:49.424Z,76.55
2018-11-27T21:49:18.982Z,75.51
2018-11-27T21:51:48.410Z,75.08
2018-11-27T21:54:18.303Z,76.19
2018-11-27T21:56:47.939Z,77.18
2018-11-27T21:59:17.589Z,77.71
2018-11-27T22:01:47.043Z,77.62
2018-11-27T22:04:16.562Z,77.47
2018-11-27T22:06:46.077Z,77.84
2018-11-27T22:09:15.550Z,77.17
2018-11-27T22:11:45.111Z,77.72
2018-11-27T22:14:14.586Z,78.36
2018-11-27T22:16:44.076Z,79.03
2018-11-27T22:19:13.561Z,79.23
2018-11-27T22:21:43.078Z,79.30
2018-11-27T22:24:12.614Z,79.30
2018-11-27T22:26:42.251Z,79.66
2018-11-27T22:29:11.792Z,79.59
2018-11-27T22:31:41.270Z,80.35
2018-11-27T22:34:10.811Z,80.13
2018-11-27T22:36:40.444Z,80.20
2018-11-27T22:39:10.145Z,80.23
2018-11-27T22:41:39.602Z,80.47
2018-11-27T22:44:09.182Z,80.15
2018-11-27T22:46:38.745Z,80.16
2018-11-27T22:49:08.271Z,80.78
2018-11-27T22:51:38.506Z,80.19
2018-11-27T22:54:07.958Z,80.91
2018-11-27T22:56:37.405Z,80.77
2018-11-27T22:59:07.141Z,80.84
2018-11-27T23:01:38.670Z,80.79
2018-11-27T23:04:09.475Z,80.82
2018-11-27T23:06:38.989Z,81.09
2018-11-27T23:09:09.724Z,81.08
2018-11-27T23:11:39.157Z,80.19
2018-11-27T23:14:08.582Z,81.11
2018-11-27T23:16:38.041Z,80.84
2018-11-27T23:19:07.499Z,80.69
2018-11-27T23:21:36.961Z,80.83
2018-11-27T23:24:06.675Z,81.42
2018-11-27T23:26:36.205Z,80.95
2018-11-27T23:29:06.207Z,80.97
2018-11-27T23:31:35.705Z,81.52
2018-11-27T23:34:05.315Z,80.91
2018-11-27T23:36:34.908Z,81.41
2018-11-27T23:39:06.139Z,80.97
2018-11-27T23:41:35.646Z,80.51
2018-11-27T23:44:05.266Z,80.43
2018-11-27T23:46:34.738Z,80.26
2018-11-27T23:49:04.168Z,80.38
2018-11-27T23:51:33.920Z,81.17
2018-11-27T23:54:03.391Z,81.63
2018-11-27T23:56:32.848Z,82.47
2018-11-27T23:59:02.309Z,81.59
